sensor_id;sensor_type;location;lat;lon;timestamp;pressure;altitude;pressure_sealevel;temperature;humidity
47430;BME280;33181;49.246;7.372;2022-07-23T00:01:33;98811.19;;;24.63;60.15
47430;BME280;33181;49.246;7.372;2022-07-23T00:04:00;98814.69;;;24.64;60.39
47430;BME280;33181;49.246;7.372;2022-07-23T00:06:26;98816.75;;;24.62;60.49
47430;BME280;33181;49.246;7.372;2022-07-23T00:08:52;98812.81;;;24.64;60.30
47430;BME280;33181;49.246;7.372;2022-07-23T00:11:18;98802.94;;;24.51;61.15
47430;BME280;33181;49.246;7.372;2022-07-23T00:13:44;98802.41;;;24.16;62.34
47430;BME280;33181;49.246;7.372;2022-07-23T00:16:10;98802.19;;;24.11;62.38
47430;BME280;33181;49.246;7.372;2022-07-23T00:18:35;98809.84;;;24.08;62.38
47430;BME280;33181;49.246;7.372;2022-07-23T00:21:01;98809.88;;;23.94;62.49
47430;BME280;33181;49.246;7.372;2022-07-23T00:23:27;98812.34;;;23.89;62.61
47430;BME280;33181;49.246;7.372;2022-07-23T00:25:55;98820.63;;;23.94;62.25
47430;BME280;33181;49.246;7.372;2022-07-23T00:28:21;98824.53;;;23.98;62.08
47430;BME280;33181;49.246;7.372;2022-07-23T00:30:46;98811.09;;;24.05;61.95
47430;BME280;33181;49.246;7.372;2022-07-23T00:33:12;98803.03;;;24.12;61.62
47430;BME280;33181;49.246;7.372;2022-07-23T00:35:40;98814.59;;;24.19;61.42
47430;BME280;33181;49.246;7.372;2022-07-23T00:38:08;98818.53;;;24.10;61.64
47430;BME280;33181;49.246;7.372;2022-07-23T00:40:36;98824.72;;;24.03;60.58
47430;BME280;33181;49.246;7.372;2022-07-23T00:43:03;98826.41;;;23.91;60.22
47430;BME280;33181;49.246;7.372;2022-07-23T00:45:30;98849.31;;;23.87;60.22
47430;BME280;33181;49.246;7.372;2022-07-23T00:47:58;98865.59;;;23.86;59.87
47430;BME280;33181;49.246;7.372;2022-07-23T00:50:25;98873.25;;;23.82;58.63
47430;BME280;33181;49.246;7.372;2022-07-23T00:52:52;98883.78;;;23.84;58.43
47430;BME280;33181;49.246;7.372;2022-07-23T00:55:18;98878.63;;;23.89;57.88
47430;BME280;33181;49.246;7.372;2022-07-23T00:57:44;98861.06;;;23.86;56.95
47430;BME280;33181;49.246;7.372;2022-07-23T01:00:12;98848.50;;;23.93;57.35
47430;BME280;33181;49.246;7.372;2022-07-23T01:02:40;98834.22;;;23.86;56.33
47430;BME280;33181;49.246;7.372;2022-07-23T01:05:06;98842.91;;;23.88;56.69
47430;BME280;33181;49.246;7.372;2022-07-23T01:07:33;98857.97;;;23.89;56.93
47430;BME280;33181;49.246;7.372;2022-07-23T01:09:59;98848.50;;;23.87;57.36
47430;BME280;33181;49.246;7.372;2022-07-23T01:12:25;98830.97;;;23.71;57.99
47430;BME280;33181;49.246;7.372;2022-07-23T01:14:55;98826.81;;;23.68;58.27
47430;BME280;33181;49.246;7.372;2022-07-23T01:17:22;98814.22;;;23.55;58.26
47430;BME280;33181;49.246;7.372;2022-07-23T01:19:48;98807.00;;;23.43;58.63
47430;BME280;33181;49.246;7.372;2022-07-23T01:22:15;98791.91;;;23.35;58.87
47430;BME280;33181;49.246;7.372;2022-07-23T01:24:43;98790.47;;;23.32;58.70
47430;BME280;33181;49.246;7.372;2022-07-23T01:27:09;98785.31;;;23.38;58.85
47430;BME280;33181;49.246;7.372;2022-07-23T01:29:35;98758.91;;;23.28;58.73
47430;BME280;33181;49.246;7.372;2022-07-23T01:32:00;98746.53;;;23.13;59.88
47430;BME280;33181;49.246;7.372;2022-07-23T01:34:26;98761.38;;;23.09;59.98
47430;BME280;33181;49.246;7.372;2022-07-23T01:36:52;98765.50;;;23.19;59.85
47430;BME280;33181;49.246;7.372;2022-07-23T01:39:18;98755.00;;;23.30;59.45
47430;BME280;33181;49.246;7.372;2022-07-23T01:41:44;98751.28;;;23.11;59.65
47430;BME280;33181;49.246;7.372;2022-07-23T01:44:09;98742.38;;;23.04;60.16
47430;BME280;33181;49.246;7.372;2022-07-23T01:46:35;98732.94;;;22.95;60.19
47430;BME280;33181;49.246;7.372;2022-07-23T01:49:01;98750.38;;;22.91;60.60
47430;BME280;33181;49.246;7.372;2022-07-23T01:51:26;98753.50;;;23.01;60.47
47430;BME280;33181;49.246;7.372;2022-07-23T01:53:52;98763.88;;;23.18;59.92
47430;BME280;33181;49.246;7.372;2022-07-23T01:56:18;98757.28;;;23.27;59.80
47430;BME280;33181;49.246;7.372;2022-07-23T01:58:47;98765.09;;;23.35;59.65
47430;BME280;33181;49.246;7.372;2022-07-23T02:01:13;98765.50;;;23.45;58.91
47430;BME280;33181;49.246;7.372;2022-07-23T02:03:39;98768.81;;;23.34;59.87
47430;BME280;33181;49.246;7.372;2022-07-23T02:06:05;98771.28;;;23.35;59.94
47430;BME280;33181;49.246;7.372;2022-07-23T02:08:30;98782.84;;;23.36;60.38
47430;BME280;33181;49.246;7.372;2022-07-23T02:10:56;98803.25;;;23.37;60.30
47430;BME280;33181;49.246;7.372;2022-07-23T02:13:22;98813.59;;;23.40;60.28
47430;BME280;33181;49.246;7.372;2022-07-23T02:15:48;98835.59;;;23.22;61.00
47430;BME280;33181;49.246;7.372;2022-07-23T02:18:14;98832.69;;;23.10;61.34
47430;BME280;33181;49.246;7.372;2022-07-23T02:20:40;98847.13;;;23.09;61.49
47430;BME280;33181;49.246;7.372;2022-07-23T02:23:07;98844.19;;;22.98;61.91
47430;BME280;33181;49.246;7.372;2022-07-23T02:25:34;98834.75;;;23.02;62.22
47430;BME280;33181;49.246;7.372;2022-07-23T02:28:00;98838.69;;;23.19;62.09
47430;BME280;33181;49.246;7.372;2022-07-23T02:30:25;98822.41;;;23.14;63.40
47430;BME280;33181;49.246;7.372;2022-07-23T02:32:51;98809.59;;;23.09;64.52
47430;BME280;33181;49.246;7.372;2022-07-23T02:35:17;98813.34;;;23.15;64.46
47430;BME280;33181;49.246;7.372;2022-07-23T02:37:43;98802.81;;;23.20;64.63
47430;BME280;33181;49.246;7.372;2022-07-23T02:40:09;98791.28;;;23.26;64.21
47430;BME280;33181;49.246;7.372;2022-07-23T02:42:35;98752.41;;;22.82;66.23
47430;BME280;33181;49.246;7.372;2022-07-23T02:45:01;98733.16;;;22.04;69.91
47430;BME280;33181;49.246;7.372;2022-07-23T02:47:27;98728.72;;;21.83;70.75
47430;BME280;33181;49.246;7.372;2022-07-23T02:49:52;98751.31;;;21.81;71.39
47430;BME280;33181;49.246;7.372;2022-07-23T02:52:18;98752.28;;;21.66;71.53
47430;BME280;33181;49.246;7.372;2022-07-23T02:54:44;98752.19;;;21.32;72.96
47430;BME280;33181;49.246;7.372;2022-07-23T02:57:10;98759.75;;;21.28;74.06
47430;BME280;33181;49.246;7.372;2022-07-23T02:59:35;98762.03;;;21.31;74.23
47430;BME280;33181;49.246;7.372;2022-07-23T03:02:01;98763.88;;;21.52;73.18
47430;BME280;33181;49.246;7.372;2022-07-23T03:04:27;98776.19;;;21.74;72.47
47430;BME280;33181;49.246;7.372;2022-07-23T03:06:52;98787.63;;;21.96;71.77
47430;BME280;33181;49.246;7.372;2022-07-23T03:09:18;98800.16;;;22.17;71.23
47430;BME280;33181;49.246;7.372;2022-07-23T03:11:44;98806.25;;;22.39;70.85
47430;BME280;33181;49.246;7.372;2022-07-23T03:14:10;98818.00;;;22.38;70.21
47430;BME280;33181;49.246;7.372;2022-07-23T03:16:38;98824.56;;;22.36;70.86
47430;BME280;33181;49.246;7.372;2022-07-23T03:19:04;98811.19;;;22.08;72.04
47430;BME280;33181;49.246;7.372;2022-07-23T03:21:30;98782.06;;;21.91;72.53
47430;BME280;33181;49.246;7.372;2022-07-23T03:23:56;98799.72;;;21.86;73.27
47430;BME280;33181;49.246;7.372;2022-07-23T03:26:21;98807.41;;;21.95;72.86
47430;BME280;33181;49.246;7.372;2022-07-23T03:28:50;98802.47;;;21.99;72.64
47430;BME280;33181;49.246;7.372;2022-07-23T03:31:17;98808.66;;;21.99;72.73
47430;BME280;33181;49.246;7.372;2022-07-23T03:33:43;98803.38;;;22.13;72.39
47430;BME280;33181;49.246;7.372;2022-07-23T03:36:09;98808.00;;;22.26;71.79
47430;BME280;33181;49.246;7.372;2022-07-23T03:38:34;98803.78;;;22.44;71.52
47430;BME280;33181;49.246;7.372;2022-07-23T03:41:00;98771.84;;;22.36;71.53
47430;BME280;33181;49.246;7.372;2022-07-23T03:43:26;98791.16;;;22.32;71.29
47430;BME280;33181;49.246;7.372;2022-07-23T03:45:52;98806.16;;;22.19;71.76
47430;BME280;33181;49.246;7.372;2022-07-23T03:48:18;98796.75;;;22.02;72.67
47430;BME280;33181;49.246;7.372;2022-07-23T03:50:43;98799.44;;;22.09;72.85
47430;BME280;33181;49.246;7.372;2022-07-23T03:53:09;98795.00;;;22.16;72.79
47430;BME280;33181;49.246;7.372;2022-07-23T03:55:35;98812.31;;;22.20;72.86
47430;BME280;33181;49.246;7.372;2022-07-23T03:58:01;98806.00;;;22.34;72.37
47430;BME280;33181;49.246;7.372;2022-07-23T04:00:27;98809.09;;;22.38;72.01
47430;BME280;33181;49.246;7.372;2022-07-23T04:02:52;98810.00;;;22.45;71.55
47430;BME280;33181;49.246;7.372;2022-07-23T04:05:18;98813.03;;;22.35;71.68
47430;BME280;33181;49.246;7.372;2022-07-23T04:07:44;98819.78;;;22.31;71.99
47430;BME280;33181;49.246;7.372;2022-07-23T04:10:09;98830.72;;;22.36;72.04
47430;BME280;33181;49.246;7.372;2022-07-23T04:12:35;98821.09;;;22.42;72.15
47430;BME280;33181;49.246;7.372;2022-07-23T04:15:01;98816.56;;;22.42;71.75
47430;BME280;33181;49.246;7.372;2022-07-23T04:17:27;98828.69;;;22.38;71.53
47430;BME280;33181;49.246;7.372;2022-07-23T04:19:53;98823.75;;;22.42;71.41
47430;BME280;33181;49.246;7.372;2022-07-23T04:22:19;98836.78;;;22.52;71.04
47430;BME280;33181;49.246;7.372;2022-07-23T04:24:45;98839.09;;;22.61;71.10
47430;BME280;33181;49.246;7.372;2022-07-23T04:27:10;98843.84;;;22.66;70.94
47430;BME280;33181;49.246;7.372;2022-07-23T04:29:36;98842.84;;;22.67;71.26
47430;BME280;33181;49.246;7.372;2022-07-23T04:32:02;98846.38;;;22.74;70.79
47430;BME280;33181;49.246;7.372;2022-07-23T04:34:28;98854.25;;;22.48;73.14
47430;BME280;33181;49.246;7.372;2022-07-23T04:36:54;98852.13;;;22.30;74.38
47430;BME280;33181;49.246;7.372;2022-07-23T04:39:20;98848.56;;;22.23;74.08
47430;BME280;33181;49.246;7.372;2022-07-23T04:41:46;98839.38;;;22.04;74.54
47430;BME280;33181;49.246;7.372;2022-07-23T04:44:12;98855.66;;;21.59;77.69
47430;BME280;33181;49.246;7.372;2022-07-23T04:46:38;98868.25;;;21.65;77.99
47430;BME280;33181;49.246;7.372;2022-07-23T04:49:03;98864.41;;;21.74;77.41
47430;BME280;33181;49.246;7.372;2022-07-23T04:51:29;98868.56;;;21.77;76.78
47430;BME280;33181;49.246;7.372;2022-07-23T04:53:55;98863.91;;;21.86;75.96
47430;BME280;33181;49.246;7.372;2022-07-23T04:56:22;98871.28;;;21.84;76.07
47430;BME280;33181;49.246;7.372;2022-07-23T04:58:47;98882.47;;;21.94;76.02
47430;BME280;33181;49.246;7.372;2022-07-23T05:01:13;98876.34;;;22.00;75.05
47430;BME280;33181;49.246;7.372;2022-07-23T05:03:39;98885.22;;;22.01;75.53
47430;BME280;33181;49.246;7.372;2022-07-23T05:06:05;98877.03;;;22.09;75.31
47430;BME280;33181;49.246;7.372;2022-07-23T05:08:31;98886.44;;;22.19;74.44
47430;BME280;33181;49.246;7.372;2022-07-23T05:10:57;98893.25;;;22.29;74.28
47430;BME280;33181;49.246;7.372;2022-07-23T05:13:22;98898.91;;;22.40;73.63
47430;BME280;33181;49.246;7.372;2022-07-23T05:15:48;98899.75;;;22.48;73.82
47430;BME280;33181;49.246;7.372;2022-07-23T05:18:14;98913.44;;;22.59;73.57
47430;BME280;33181;49.246;7.372;2022-07-23T05:20:40;98916.78;;;22.68;73.41
47430;BME280;33181;49.246;7.372;2022-07-23T05:23:07;98924.44;;;22.71;73.20
47430;BME280;33181;49.246;7.372;2022-07-23T05:25:33;98933.09;;;22.73;73.25
47430;BME280;33181;49.246;7.372;2022-07-23T05:27:59;98947.94;;;22.76;73.66
47430;BME280;33181;49.246;7.372;2022-07-23T05:30:25;98940.97;;;22.81;73.22
47430;BME280;33181;49.246;7.372;2022-07-23T05:32:50;98946.13;;;22.83;72.86
47430;BME280;33181;49.246;7.372;2022-07-23T05:35:16;98939.75;;;22.84;72.74
47430;BME280;33181;49.246;7.372;2022-07-23T05:37:42;98948.84;;;22.89;72.78
47430;BME280;33181;49.246;7.372;2022-07-23T05:40:10;98943.91;;;22.93;71.70
47430;BME280;33181;49.246;7.372;2022-07-23T05:42:40;98947.63;;;22.57;72.82
47430;BME280;33181;49.246;7.372;2022-07-23T05:45:07;98950.72;;;22.54;73.21
47430;BME280;33181;49.246;7.372;2022-07-23T05:47:45;98937.72;;;22.51;73.29
47430;BME280;33181;49.246;7.372;2022-07-23T05:50:12;98936.53;;;22.32;74.42
47430;BME280;33181;49.246;7.372;2022-07-23T05:52:38;98939.78;;;22.28;75.27
47430;BME280;33181;49.246;7.372;2022-07-23T05:55:06;98951.63;;;22.40;74.74
47430;BME280;33181;49.246;7.372;2022-07-23T05:57:32;98948.22;;;22.53;74.31
47430;BME280;33181;49.246;7.372;2022-07-23T05:59:58;98945.13;;;22.56;74.12
47430;BME280;33181;49.246;7.372;2022-07-23T06:02:23;98946.63;;;22.65;74.08
47430;BME280;33181;49.246;7.372;2022-07-23T06:04:49;98940.94;;;22.75;73.38
47430;BME280;33181;49.246;7.372;2022-07-23T06:07:15;98944.25;;;22.77;73.29
47430;BME280;33181;49.246;7.372;2022-07-23T06:09:41;98941.00;;;22.88;73.17
47430;BME280;33181;49.246;7.372;2022-07-23T06:12:07;98939.69;;;23.05;73.00
47430;BME280;33181;49.246;7.372;2022-07-23T06:14:33;98942.81;;;23.22;72.20
47430;BME280;33181;49.246;7.372;2022-07-23T06:16:59;98943.28;;;23.39;72.13
47430;BME280;33181;49.246;7.372;2022-07-23T06:19:25;98946.47;;;23.63;71.35
47430;BME280;33181;49.246;7.372;2022-07-23T06:21:51;98950.19;;;23.68;69.74
47430;BME280;33181;49.246;7.372;2022-07-23T06:24:17;98946.69;;;23.68;69.58
47430;BME280;33181;49.246;7.372;2022-07-23T06:26:43;98943.00;;;23.75;69.07
47430;BME280;33181;49.246;7.372;2022-07-23T06:29:09;98944.25;;;23.79;69.38
47430;BME280;33181;49.246;7.372;2022-07-23T06:31:34;98939.00;;;23.58;68.72
47430;BME280;33181;49.246;7.372;2022-07-23T06:34:00;98945.78;;;23.47;69.77
47430;BME280;33181;49.246;7.372;2022-07-23T06:36:26;98947.03;;;23.51;70.09
47430;BME280;33181;49.246;7.372;2022-07-23T06:38:52;98954.09;;;23.66;69.48
47430;BME280;33181;49.246;7.372;2022-07-23T06:41:18;98960.31;;;23.73;69.63
47430;BME280;33181;49.246;7.372;2022-07-23T06:43:43;98953.56;;;23.84;69.21
47430;BME280;33181;49.246;7.372;2022-07-23T06:46:09;98961.41;;;24.12;68.16
47430;BME280;33181;49.246;7.372;2022-07-23T06:48:35;98963.69;;;24.48;67.87
47430;BME280;33181;49.246;7.372;2022-07-23T06:51:02;98961.56;;;24.83;66.74
47430;BME280;33181;49.246;7.372;2022-07-23T06:53:28;98964.22;;;24.96;64.59
47430;BME280;33181;49.246;7.372;2022-07-23T06:55:54;98967.03;;;25.28;65.00
47430;BME280;33181;49.246;7.372;2022-07-23T06:58:20;98958.88;;;25.48;64.01
47430;BME280;33181;49.246;7.372;2022-07-23T07:00:46;98967.53;;;25.57;63.04
47430;BME280;33181;49.246;7.372;2022-07-23T07:03:12;98970.38;;;25.62;62.72
47430;BME280;33181;49.246;7.372;2022-07-23T07:05:37;98968.47;;;25.69;62.74
47430;BME280;33181;49.246;7.372;2022-07-23T07:08:05;98979.59;;;25.79;60.97
47430;BME280;33181;49.246;7.372;2022-07-23T07:10:32;98968.53;;;25.94;62.30
47430;BME280;33181;49.246;7.372;2022-07-23T07:12:58;98976.63;;;26.19;61.38
47430;BME280;33181;49.246;7.372;2022-07-23T07:15:23;98982.75;;;26.08;59.29
47430;BME280;33181;49.246;7.372;2022-07-23T07:17:49;98975.25;;;26.10;60.39
47430;BME280;33181;49.246;7.372;2022-07-23T07:20:15;98973.75;;;26.21;60.16
47430;BME280;33181;49.246;7.372;2022-07-23T07:22:41;98983.19;;;26.05;59.55
47430;BME280;33181;49.246;7.372;2022-07-23T07:25:07;98980.41;;;25.80;60.31
47430;BME280;33181;49.246;7.372;2022-07-23T07:27:33;98994.31;;;25.83;60.15
47430;BME280;33181;49.246;7.372;2022-07-23T07:29:59;98992.72;;;26.01;60.60
47430;BME280;33181;49.246;7.372;2022-07-23T07:32:24;98994.53;;;26.07;60.43
47430;BME280;33181;49.246;7.372;2022-07-23T07:34:50;98988.56;;;26.05;59.29
47430;BME280;33181;49.246;7.372;2022-07-23T07:37:17;98998.81;;;25.89;59.84
47430;BME280;33181;49.246;7.372;2022-07-23T07:39:42;98998.44;;;25.86;59.18
47430;BME280;33181;49.246;7.372;2022-07-23T07:42:08;98997.94;;;25.57;59.80
47430;BME280;33181;49.246;7.372;2022-07-23T07:44:34;98991.31;;;25.53;61.07
47430;BME280;33181;49.246;7.372;2022-07-23T07:47:00;99008.03;;;25.62;60.58
47430;BME280;33181;49.246;7.372;2022-07-23T07:49:25;99001.38;;;25.71;59.99
47430;BME280;33181;49.246;7.372;2022-07-23T07:51:51;99008.81;;;25.76;59.26
47430;BME280;33181;49.246;7.372;2022-07-23T07:54:17;99007.22;;;25.61;58.27
47430;BME280;33181;49.246;7.372;2022-07-23T07:56:42;99006.63;;;25.53;59.67
47430;BME280;33181;49.246;7.372;2022-07-23T07:59:08;99006.84;;;25.58;59.84
47430;BME280;33181;49.246;7.372;2022-07-23T08:01:34;99008.47;;;25.59;59.96
47430;BME280;33181;49.246;7.372;2022-07-23T08:04:00;99017.91;;;25.81;58.62
47430;BME280;33181;49.246;7.372;2022-07-23T08:06:26;99008.28;;;25.99;57.67
47430;BME280;33181;49.246;7.372;2022-07-23T08:08:51;99011.22;;;25.91;58.01
47430;BME280;33181;49.246;7.372;2022-07-23T08:11:17;99009.97;;;25.93;58.64
47430;BME280;33181;49.246;7.372;2022-07-23T08:13:43;99004.00;;;26.16;57.90
47430;BME280;33181;49.246;7.372;2022-07-23T08:16:10;99006.88;;;26.46;57.35
47430;BME280;33181;49.246;7.372;2022-07-23T08:18:36;99013.03;;;26.78;56.67
47430;BME280;33181;49.246;7.372;2022-07-23T08:21:03;99014.25;;;27.01;55.55
47430;BME280;33181;49.246;7.372;2022-07-23T08:23:31;99007.72;;;27.15;55.32
47430;BME280;33181;49.246;7.372;2022-07-23T08:25:57;99009.34;;;27.35;54.72
47430;BME280;33181;49.246;7.372;2022-07-23T08:28:23;99008.97;;;27.49;53.58
47430;BME280;33181;49.246;7.372;2022-07-23T08:30:49;99010.28;;;27.77;53.16
47430;BME280;33181;49.246;7.372;2022-07-23T08:33:17;99010.97;;;28.03;52.77
47430;BME280;33181;49.246;7.372;2022-07-23T08:35:46;99004.19;;;28.24;52.37
47430;BME280;33181;49.246;7.372;2022-07-23T08:38:15;99007.88;;;28.53;51.08
47430;BME280;33181;49.246;7.372;2022-07-23T08:40:44;99010.00;;;28.74;50.16
47430;BME280;33181;49.246;7.372;2022-07-23T08:43:14;99011.91;;;28.85;50.41
47430;BME280;33181;49.246;7.372;2022-07-23T08:45:45;99008.69;;;29.36;49.91
47430;BME280;33181;49.246;7.372;2022-07-23T08:48:23;99012.94;;;29.60;48.31
47430;BME280;33181;49.246;7.372;2022-07-23T08:50:55;99025.13;;;29.86;48.41
47430;BME280;33181;49.246;7.372;2022-07-23T08:53:24;99016.69;;;29.99;47.55
47430;BME280;33181;49.246;7.372;2022-07-23T08:55:56;99020.59;;;29.92;47.65
47430;BME280;33181;49.246;7.372;2022-07-23T08:58:23;99018.75;;;29.64;48.21
47430;BME280;33181;49.246;7.372;2022-07-23T09:00:49;99020.66;;;29.80;47.70
47430;BME280;33181;49.246;7.372;2022-07-23T09:03:21;99019.06;;;29.96;48.21
47430;BME280;33181;49.246;7.372;2022-07-23T09:05:52;99021.59;;;30.31;47.42
47430;BME280;33181;49.246;7.372;2022-07-23T09:08:46;99019.81;;;30.08;47.11
47430;BME280;33181;49.246;7.372;2022-07-23T09:11:16;99019.00;;;29.79;48.15
47430;BME280;33181;49.246;7.372;2022-07-23T09:13:51;99020.03;;;29.61;47.10
47430;BME280;33181;49.246;7.372;2022-07-23T09:16:30;99026.94;;;29.57;46.97
47430;BME280;33181;49.246;7.372;2022-07-23T09:19:16;99013.81;;;29.61;47.01
47430;BME280;33181;49.246;7.372;2022-07-23T09:22:32;99014.28;;;29.86;46.76
47430;BME280;33181;49.246;7.372;2022-07-23T09:25:30;99011.72;;;29.79;45.84
47430;BME280;33181;49.246;7.372;2022-07-23T09:28:00;99017.19;;;29.56;47.76
47430;BME280;33181;49.246;7.372;2022-07-23T09:30:31;99012.72;;;29.90;46.60
47430;BME280;33181;49.246;7.372;2022-07-23T09:33:11;99024.00;;;29.99;45.12
47430;BME280;33181;49.246;7.372;2022-07-23T09:38:20;99010.75;;;30.65;44.98
47430;BME280;33181;49.246;7.372;2022-07-23T09:41:04;99018.31;;;30.46;44.47
47430;BME280;33181;49.246;7.372;2022-07-23T09:43:31;99010.00;;;30.36;44.34
47430;BME280;33181;49.246;7.372;2022-07-23T09:48:50;99010.16;;;30.63;44.34
47430;BME280;33181;49.246;7.372;2022-07-23T09:51:17;99015.72;;;30.73;44.35
47430;BME280;33181;49.246;7.372;2022-07-23T09:53:50;99020.84;;;30.86;43.80
47430;BME280;33181;49.246;7.372;2022-07-23T09:56:17;99021.22;;;31.12;42.91
47430;BME280;33181;49.246;7.372;2022-07-23T09:58:44;99016.47;;;31.24;42.22
47430;BME280;33181;49.246;7.372;2022-07-23T10:01:13;99022.66;;;31.20;42.19
47430;BME280;33181;49.246;7.372;2022-07-23T10:03:41;99019.16;;;31.24;42.04
47430;BME280;33181;49.246;7.372;2022-07-23T10:06:09;99006.06;;;30.60;43.67
47430;BME280;33181;49.246;7.372;2022-07-23T10:08:41;99011.91;;;30.52;43.73
47430;BME280;33181;49.246;7.372;2022-07-23T10:11:10;99013.13;;;30.44;43.37
47430;BME280;33181;49.246;7.372;2022-07-23T10:13:37;99010.94;;;30.13;45.62
47430;BME280;33181;49.246;7.372;2022-07-23T10:16:23;99013.31;;;30.21;43.99
47430;BME280;33181;49.246;7.372;2022-07-23T10:18:49;99018.31;;;30.00;44.18
47430;BME280;33181;49.246;7.372;2022-07-23T10:21:42;99018.81;;;30.43;44.30
47430;BME280;33181;49.246;7.372;2022-07-23T10:30:01;99018.69;;;30.88;42.87
47430;BME280;33181;49.246;7.372;2022-07-23T10:35:54;99016.00;;;30.71;42.35
47430;BME280;33181;49.246;7.372;2022-07-23T10:41:04;99012.09;;;30.45;43.75
47430;BME280;33181;49.246;7.372;2022-07-23T10:43:30;99004.06;;;30.89;43.17
47430;BME280;33181;49.246;7.372;2022-07-23T10:46:24;99006.56;;;31.13;41.17
47430;BME280;33181;49.246;7.372;2022-07-23T10:49:22;99003.25;;;31.50;41.11
47430;BME280;33181;49.246;7.372;2022-07-23T10:57:28;99008.41;;;32.00;40.13
47430;BME280;33181;49.246;7.372;2022-07-23T11:02:42;99001.59;;;32.30;38.11
47430;BME280;33181;49.246;7.372;2022-07-23T11:05:14;98996.59;;;32.49;37.22
47430;BME280;33181;49.246;7.372;2022-07-23T11:13:30;98997.72;;;32.95;36.66
47430;BME280;33181;49.246;7.372;2022-07-23T11:24:10;98996.38;;;31.69;38.29
47430;BME280;33181;49.246;7.372;2022-07-23T11:32:08;98993.72;;;32.28;36.91
47430;BME280;33181;49.246;7.372;2022-07-23T11:34:49;98986.03;;;31.66;37.34
47430;BME280;33181;49.246;7.372;2022-07-23T11:40:01;98987.38;;;31.42;38.13
47430;BME280;33181;49.246;7.372;2022-07-23T11:42:27;98988.50;;;31.24;38.22
47430;BME280;33181;49.246;7.372;2022-07-23T11:44:53;98983.06;;;31.24;39.05
47430;BME280;33181;49.246;7.372;2022-07-23T11:47:25;98980.28;;;31.62;37.41
47430;BME280;33181;49.246;7.372;2022-07-23T11:49:57;98976.75;;;32.16;37.11
47430;BME280;33181;49.246;7.372;2022-07-23T11:52:24;98974.03;;;32.16;36.20
47430;BME280;33181;49.246;7.372;2022-07-23T11:55:04;98982.78;;;31.91;35.57
47430;BME280;33181;49.246;7.372;2022-07-23T11:57:33;98977.72;;;31.51;37.11
47430;BME280;33181;49.246;7.372;2022-07-23T12:00:23;98977.19;;;31.81;37.58
47430;BME280;33181;49.246;7.372;2022-07-23T12:02:52;98972.81;;;32.02;36.57
47430;BME280;33181;49.246;7.372;2022-07-23T12:05:25;98977.28;;;32.18;36.88
47430;BME280;33181;49.246;7.372;2022-07-23T12:07:54;98975.44;;;32.24;35.95
47430;BME280;33181;49.246;7.372;2022-07-23T12:10:34;98966.69;;;32.49;35.89
47430;BME280;33181;49.246;7.372;2022-07-23T12:13:04;98974.31;;;32.52;36.04
47430;BME280;33181;49.246;7.372;2022-07-23T12:15:38;98975.13;;;32.52;37.24
47430;BME280;33181;49.246;7.372;2022-07-23T12:18:07;98970.84;;;32.62;35.96
47430;BME280;33181;49.246;7.372;2022-07-23T12:20:43;98975.38;;;32.46;36.17
47430;BME280;33181;49.246;7.372;2022-07-23T12:23:12;98967.91;;;32.36;36.22
47430;BME280;33181;49.246;7.372;2022-07-23T12:25:44;98970.81;;;31.92;36.94
47430;BME280;33181;49.246;7.372;2022-07-23T12:28:16;98974.91;;;31.68;36.59
47430;BME280;33181;49.246;7.372;2022-07-23T12:30:47;98975.50;;;31.48;37.64
47430;BME280;33181;49.246;7.372;2022-07-23T12:35:50;98973.41;;;31.11;38.62
47430;BME280;33181;49.246;7.372;2022-07-23T12:38:21;98966.84;;;31.07;39.03
47430;BME280;33181;49.246;7.372;2022-07-23T12:40:56;98972.34;;;31.12;38.31
47430;BME280;33181;49.246;7.372;2022-07-23T12:43:28;98971.34;;;31.18;37.92
47430;BME280;33181;49.246;7.372;2022-07-23T12:46:06;98978.41;;;31.19;36.20
47430;BME280;33181;49.246;7.372;2022-07-23T12:51:18;98977.28;;;31.15;36.93
47430;BME280;33181;49.246;7.372;2022-07-23T12:53:59;98969.34;;;30.91;37.68
47430;BME280;33181;49.246;7.372;2022-07-23T12:56:32;98970.38;;;30.85;37.88
47430;BME280;33181;49.246;7.372;2022-07-23T12:59:06;98967.66;;;30.85;38.44
47430;BME280;33181;49.246;7.372;2022-07-23T13:01:38;98967.03;;;31.00;37.72
47430;BME280;33181;49.246;7.372;2022-07-23T13:04:17;98968.47;;;30.86;36.07
47430;BME280;33181;49.246;7.372;2022-07-23T13:06:59;98976.03;;;30.67;36.34
47430;BME280;33181;49.246;7.372;2022-07-23T13:09:31;98970.25;;;30.41;36.86
47430;BME280;33181;49.246;7.372;2022-07-23T13:11:57;98982.56;;;30.32;38.21
47430;BME280;33181;49.246;7.372;2022-07-23T13:14:25;98977.94;;;30.16;37.53
47430;BME280;33181;49.246;7.372;2022-07-23T13:16:53;98977.47;;;30.36;37.45
47430;BME280;33181;49.246;7.372;2022-07-23T13:19:19;98983.94;;;30.85;37.20
47430;BME280;33181;49.246;7.372;2022-07-23T13:21:48;98982.81;;;31.25;35.79
47430;BME280;33181;49.246;7.372;2022-07-23T13:24:15;98984.19;;;31.72;35.96
47430;BME280;33181;49.246;7.372;2022-07-23T13:26:41;98975.34;;;31.86;35.28
47430;BME280;33181;49.246;7.372;2022-07-23T13:29:08;98981.63;;;31.60;35.83
47430;BME280;33181;49.246;7.372;2022-07-23T13:31:34;98978.94;;;31.38;35.73
47430;BME280;33181;49.246;7.372;2022-07-23T13:34:00;98989.88;;;31.26;36.85
47430;BME280;33181;49.246;7.372;2022-07-23T13:36:26;98981.81;;;31.09;36.42
47430;BME280;33181;49.246;7.372;2022-07-23T13:38:52;98983.44;;;30.88;37.04
47430;BME280;33181;49.246;7.372;2022-07-23T13:41:18;98987.78;;;30.89;37.17
47430;BME280;33181;49.246;7.372;2022-07-23T13:43:44;98987.28;;;31.14;36.87
47430;BME280;33181;49.246;7.372;2022-07-23T13:46:09;98988.47;;;31.41;35.88
47430;BME280;33181;49.246;7.372;2022-07-23T13:48:35;98978.94;;;31.38;36.39
47430;BME280;33181;49.246;7.372;2022-07-23T13:51:01;98976.69;;;31.57;36.47
47430;BME280;33181;49.246;7.372;2022-07-23T13:53:27;98981.47;;;31.72;36.16
47430;BME280;33181;49.246;7.372;2022-07-23T13:55:53;98978.69;;;31.89;35.33
47430;BME280;33181;49.246;7.372;2022-07-23T13:58:20;98983.09;;;32.00;35.69